Weather observations for the past three days for
Solon Springs Municipal Airport
Metric (Imperial)
Date Time (cdt) Wind (kph) Vis. (km) Weather Sky Cond. Temperature (ºC) Relative Humidity Wind Chill (°C) Heat Index (°C) Pressure Precipitation (cm)
Air Dwpt 6 hour altimeter (cm) sea level (mb) 1 hr 3 hr 6 hr
Max. Min.
06 12:35 W 17 16.09 Overcast OVC046 5 -6 45% 2 76.07 0.0
06 12:15 W 13 16.09 Overcast OVC046 5 -6 45% 2 76.1 0.0
06 11:55 W 9 16.09 Overcast BKN042 OVC050 4 -6 48% 2 76.1 0.0
06 11:35 W 15 G 26 16.09 Overcast OVC042 4 -6 48% 1 76.1 0.0
06 11:15 W 15 16.09 Overcast OVC040 4 -6 48% 1 76.1 0.0
06 10:55 NW 15 16.09 Overcast OVC038 3 -5 56% -0 76.12 0.0
06 10:35 W 15 G 26 16.09 Overcast OVC038 3 -6 52% -0 76.1 0.0
06 10:15 NW 15 16.09 Overcast OVC038 3 -5 56% -0 76.1 0.0
06 09:55 W 15 16.09 Overcast OVC040 3 -6 52% -0 76.1 0.0
06 09:35 W 13 G 28 16.09 Overcast OVC042 3 -6 52% 0 76.1 0.0
06 09:15 W 15 G 30 16.09 Overcast OVC042 3 -6 52% -0 76.1 0.0
06 08:55 NW 17 G 31 16.09 Mostly Cloudy BKN042 4 -7 45% 1 76.1 0.0
06 08:35 NW 17 G 26 16.09 Mostly Cloudy SCT038 BKN044 2 -6 56% -2 76.1 0.0
06 08:15 NW 11 16.09 Partly Cloudy SCT035 SCT043 2 -6 56% -1 76.07 0.0
06 07:55 NW 9 16.09 Fair CLR 2 -5 60% -0 76.07 0.0
06 07:35 NW 7 16.09 Fair CLR 1 -6 60% -1 76.07 0.0
06 06:55 NW 9 16.09 Fair CLR 0 -6 64% -3 76.05 0.0
06 06:30 NW 9 16.09 Fair CLR 0 -6 64% -3 76.02 0.0
06 06:15 NW 6 16.09 Fair CLR 0 -6 64% 76 0.0
06 05:55 NW 7 16.09 Fair CLR 0 -6 64% -2 76 0.0
06 05:35 NW 7 16.09 Fair CLR 0 -6 64% -2 76 0.0
06 05:15 NW 7 16.09 Mostly Cloudy BKN047 0 -6 64% -2 76 0.0
06 04:55 NW 9 16.09 Overcast OVC045 1 -6 60% -2 76 0.0
06 04:35 W 9 16.09 Mostly Cloudy BKN044 1 -6 60% -2 75.97 0.0
06 04:15 Calm 16.09 Overcast OVC042 1 -6 60% 75.97 0.0
06 03:55 W 7 16.09 Overcast OVC042 2 -6 56% 0 75.95 0.0
06 03:35 W 7 16.09 Overcast OVC040 2 -6 56% 0 75.95 0.0
06 03:15 W 7 16.09 Overcast OVC040 2 -6 56% 0 75.95 0.0
06 02:55 NW 9 16.09 Overcast OVC040 2 -6 56% -0 75.95 0.0
06 02:35 NW 7 16.09 Overcast OVC042 2 -6 56% 0 75.95 0.0
06 02:15 NW 9 16.09 Overcast OVC042 2 -6 56% -0 75.95 0.0
06 01:55 NW 11 16.09 Overcast OVC042 2 -6 56% -1 75.95 0.0
06 01:35 W 6 16.09 Overcast OVC042 2 -6 56% 75.95 0.0
06 01:15 NW 7 16.09 Overcast OVC042 2 -6 56% 0 75.95 0.0
06 00:55 NW 7 16.09 Overcast OVC042 2 -6 56% 0 75.95 0.0
06 00:35 NW 11 16.09 Overcast OVC042 2 -6 56% -1 75.95 0.0
06 00:15 Calm 16.09 Overcast OVC042 2 -6 56% 75.92 0.0
05 23:55 NW 9 16.09 Overcast OVC042 2 -6 56% -0 75.92 0.0
05 23:35 NW 9 16.09 Overcast OVC046 3 -6 52% 1 75.9 0.0
05 23:15 NW 11 16.09 Overcast OVC046 3 -6 52% 0 75.9 0.0
05 22:55 NW 11 16.09 Overcast OVC046 3 -6 52% 0 75.9 0.0
05 22:35 NW 6 16.09 Overcast OVC046 2 -5 60% 75.9 0.0
05 22:15 NW 7 16.09 Mostly Cloudy BKN048 2 -6 56% 0 75.9 0.0
05 21:55 NW 7 16.09 Fair CLR 2 -6 56% 0 75.9 0.0
05 21:35 NW 7 16.09 Partly Cloudy SCT060 2 -6 56% 0 75.87 0.0
05 21:15 NW 7 16.09 Overcast OVC060 3 -6 52% 1 75.84 0.0
05 20:55 NW 9 16.09 Overcast OVC060 3 -6 52% 1 75.84 0.0
05 20:35 NW 15 16.09 Overcast OVC060 4 -6 48% 1 75.82 0.0
05 20:15 NW 13 16.09 Overcast OVC060 5 -6 45% 2 75.79 0.0
05 19:55 NW 17 G 28 16.09 Overcast OVC060 5 -5 49% 2 75.79 0.0
05 19:35 NW 17 G 31 16.09 Overcast OVC060 5 -5 49% 2 75.77 0.0
05 19:15 NW 13 16.09 Overcast OVC050 5 -5 49% 2 75.77 0.0
05 18:55 W 15 G 26 16.09 Overcast OVC050 6 -5 46% 3 75.74 0.0
05 18:35 NW 15 16.09 Overcast OVC050 6 -6 42% 3 75.74 0.0
05 18:15 W 15 16.09 Overcast OVC050 6 -6 42% 3 75.74 0.0
05 17:55 NW 15 16.09 Overcast OVC050 6 -6 42% 3 75.74 0.0
05 17:35 NW 15 G 33 16.09 Mostly Cloudy BKN050 BKN090 6 -6 42% 3 75.72 0.0
05 17:15 NW 17 G 33 16.09 Mostly Cloudy BKN050 7 -5 43% 4 75.72 0.0
05 16:55 W 22 G 30 16.09 Overcast OVC050 7 -5 43% 4 75.72 0.0
05 16:35 NW 22 G 31 16.09 Overcast BKN050 OVC095 7 -5 43% 4 75.69 0.0
05 16:15 W 19 G 33 16.09 Overcast BKN050 OVC095 8 -5 40% 5 75.69 0.0
05 15:55 W 17 G 33 16.09 Overcast OVC050 7 -6 39% 4 75.69 0.0
05 15:35 NW 22 G 37 16.09 Overcast OVC050 6 -6 42% 2 75.69 0.0
05 15:15 NW 17 G 31 16.09 Overcast OVC050 7 -6 39% 4 75.69 0.0
05 14:55 NW 17 G 31 16.09 Overcast OVC050 6 -6 42% 3 75.72 0.0
05 14:35 W 17 G 30 16.09 Overcast BKN050 OVC060 6 -6 42% 3 75.72 0.0
05 14:15 W 17 G 28 16.09 Overcast BKN050 OVC060 6 -6 42% 3 75.69 0.0
05 13:55 W 15 G 30 16.09 Overcast OVC048 5 -6 45% 2 75.69 0.0
05 13:35 W 20 G 33 16.09 Overcast OVC050 5 -6 45% 1 75.69 0.0
05 13:15 W 17 G 30 16.09 Overcast OVC048 5 -6 45% 2 75.69 0.0
05 12:55 NW 19 G 30 16.09 Overcast OVC050 5 -6 45% 2 75.69 0.0
05 12:35 SW 17 G 30 16.09 Overcast OVC048 5 -6 45% 2 75.69 0.0
05 11:55 NW 13 G 26 16.09 Overcast BKN042 OVC050 4 -6 48% 1 75.69 0.0
05 11:35 W 17 G 28 16.09 Overcast OVC044 3 -6 52% -1 75.69 0.0
05 11:15 W 20 G 30 16.09 Overcast OVC046 3 -7 48% -1 75.69 0.0
05 10:55 W 17 G 30 16.09 Overcast OVC046 3 -7 48% -1 75.67 0.0
05 10:35 NW 22 G 35 16.09 Overcast OVC048 3 -7 48% -1 75.67 0.0
05 10:15 W 19 G 37 16.09 Overcast OVC046 2 -7 52% -2 75.64 0.0
05 09:55 W 13 16.09 Overcast OVC042 2 -6 56% -1 75.62 0.0
05 09:35 NW 19 16.09 Overcast OVC040 2 -6 56% -2 75.62 0.0
05 09:15 N 20 G 31 16.09 Overcast BKN038 BKN049 OVC070 3 -6 52% -1 75.62 0.0
05 08:55 NW 20 G 31 16.09 Overcast SCT034 OVC070 2 -6 56% -2 75.59 0.0
05 08:35 NW 19 G 28 16.09 Overcast SCT034 OVC070 2 -6 56% -2 75.57 0.0
05 08:15 NW 17 G 26 16.09 Mostly Cloudy BKN070 3 -6 52% -1 75.57 0.0
05 07:35 W 13 G 30 16.09 Partly Cloudy SCT031 1 -6 60% -2 75.51 0.0
05 06:55 W 7 16.09 Overcast OVC031 1 -3 75% -1 75.49 0.0
05 06:15 W 6 16.09 Overcast OVC035 1 -4 70% 75.44 0.0
05 05:55 W 9 16.09 Mostly Cloudy BKN040 BKN049 0 -4 75% -3 75.44 0.0
05 05:35 W 9 16.09 Mostly Cloudy BKN047 1 -4 70% -2 75.41 0.0
05 05:15 W 9 16.09 Overcast OVC045 1 -4 70% -2 75.41 0.0
05 04:55 W 11 16.09 Mostly Cloudy SCT030 BKN041 1 -4 70% -2 75.39 0.0
05 04:35 W 11 16.09 Mostly Cloudy BKN030 1 -4 70% -2 75.39 0.0
05 04:15 W 9 16.09 Partly Cloudy SCT030 1 -4 70% -2 75.36 0.0
05 03:55 W 7 16.09 Fair CLR 1 -4 70% -1 75.34 0.0
05 03:35 W 9 16.09 Fair CLR 1 -5 65% -2 75.34 0.0
05 03:15 W 9 16.09 Partly Cloudy SCT043 1 -5 65% -2 75.31 0.0
05 02:55 W 9 16.09 Partly Cloudy SCT045 1 -5 65% -2 75.31 0.0
05 02:35 W 7 16.09 Fair CLR 1 -5 65% -1 75.31 0.0
05 02:15 W 7 16.09 Fair CLR 2 -5 60% 0 75.31 0.0
05 01:55 W 7 16.09 Fair CLR 2 -5 60% 0 75.31 0.0
05 01:35 W 7 16.09 Partly Cloudy SCT050 SCT060 3 -5 56% 1 75.31 0.0
05 01:15 W 7 16.09 Mostly Cloudy SCT050 BKN075 3 -5 56% 1 75.31 0.0
05 00:55 W 6 16.09 Partly Cloudy SCT050 SCT075 4 -5 52% 75.31 0.0
05 00:35 W 11 16.09 Fair CLR 5 -5 49% 3 75.31 0.0
05 00:15 W 11 16.09 Partly Cloudy SCT050 5 -5 49% 3 75.29 0.0
04 23:55 W 9 16.09 Fair CLR 5 -5 49% 3 75.29 0.0
04 23:35 W 7 16.09 Partly Cloudy SCT080 5 -5 49% 4 75.26 0.0
04 23:15 W 11 16.09 Overcast OVC080 6 -5 46% 4 75.26 0.0
04 22:55 W 7 16.09 Overcast OVC080 6 -5 46% 5 75.26 0.0
04 22:35 W 7 16.09 Overcast OVC080 6 -5 46% 5 75.26 0.0
04 22:15 W 15 16.09 Overcast OVC080 6 -5 46% 3 75.26 0.0
04 21:55 W 11 16.09 Overcast OVC080 6 -5 46% 4 75.26 0.0
04 21:35 W 9 16.09 Overcast OVC080 6 -5 46% 4 75.26 0.0
04 21:15 W 9 16.09 Overcast SCT060 SCT070 OVC080 6 -5 46% 4 75.23 0.0
04 20:55 W 7 16.09 Overcast SCT065 OVC070 6 -5 46% 5 75.21 0.0
04 20:35 W 11 16.09 Overcast OVC065 6 -5 46% 4 75.18 0.0
04 20:15 W 13 16.09 Overcast OVC065 7 -5 43% 5 75.18 0.0
04 19:55 W 11 16.09 Mostly Cloudy SCT060 BKN075 6 -5 46% 4 75.16 0.0
04 19:35 W 19 G 28 16.09 Mostly Cloudy BKN060 7 -5 43% 4 75.16 0.0
04 19:15 W 22 G 35 16.09 Mostly Cloudy BKN060 7 -5 43% 4 75.13 0.0
04 18:55 NW 19 G 37 16.09 Overcast OVC070 7 -5 43% 4 75.13 0.0
04 18:35 W 20 G 31 16.09 Overcast OVC070 8 -4 43% 5 75.11 0.0
04 18:15 W 19 G 33 16.09 Overcast OVC070 8 -3 46% 5 75.11 0.0
04 17:55 NW 28 G 37 16.09 Overcast OVC070 8 -3 46% 4 75.08 0.0
04 17:35 NW 33 G 44 16.09 Overcast and Breezy SCT050 OVC070 10 -2 43% 7 75.06 0.0
04 17:15 NW 17 G 39 16.09 Overcast SCT050 SCT060 OVC070 10 -2 43% 8 75.03 0.0
04 16:55 NW 28 G 39 16.09 Overcast SCT060 OVC070 10 -3 40% 7 75.01 0.0
04 16:35 W 15 G 31 16.09 Overcast SCT060 OVC070 10 -3 40% 8 74.98 0.0
04 16:15 W 19 G 28 16.09 Overcast SCT060 OVC070 11 -3 38% 74.96 0.0
04 15:55 W 20 G 33 16.09 Mostly Cloudy BKN060 BKN070 11 -3 38% 74.96 0.0
04 15:35 W 19 G 39 16.09 Mostly Cloudy BKN060 11 -3 38% 74.93 0.0
04 15:15 W 20 G 39 16.09 Overcast OVC060 12 -3 35% 74.93 0.0
04 14:55 NW 22 G 41 16.09 Overcast OVC060 11 -2 41% 74.9 0.0
04 14:35 NW 20 G 44 16.09 Mostly Cloudy BKN060 12 -2 38% 74.88 0.0
04 14:15 NW 24 G 44 16.09 Mostly Cloudy BKN050 12 -2 38% 74.83 0.0
04 13:55 W 31 G 50 16.09 Mostly Cloudy BKN050 13 -1 38% 74.83 0.0
04 13:35 W 24 G 44 16.09 Partly Cloudy SCT050 12 -2 38% 74.8 0.0
04 13:15 W 22 G 39 16.09 Partly Cloudy SCT050 13 -1 38% 74.78 0.0
04 12:55 W 26 G 37 16.09 Mostly Cloudy BKN050 13 -1 38% 74.75 0.0
04 12:35 W 26 G 39 16.09 Mostly Cloudy BKN050 12 -1 41% 74.73 0.0
04 12:15 NW 28 G 44 16.09 Mostly Cloudy BKN050 13 0 41% 74.7 0.0
04 11:55 W 26 G 46 16.09 Mostly Cloudy BKN050 13 0 41% 74.7 0.0
04 11:35 W 28 G 48 16.09 Overcast BKN050 OVC060 14 0 39% 74.68 0.0
04 11:15 W 19 G 43 16.09 Overcast OVC049 12 1 47% 74.68 0.0
04 10:55 W 20 G 37 16.09 Overcast OVC049 12 1 47% 74.65 0.0
04 10:35 W 28 G 41 16.09 Mostly Cloudy BKN049 12 0 44% 74.65 0.0
04 10:15 W 22 G 31 16.09 Mostly Cloudy BKN047 BKN120 12 1 47% 74.63 0.0
04 09:55 W 19 G 41 16.09 Mostly Cloudy SCT043 BKN120 12 1 47% 74.63 0.0
04 09:35 W 28 G 39 16.09 Overcast BKN043 OVC050 12 2 51% 74.57 0.0
04 09:15 W 11 G 30 16.09 Overcast SCT041 BKN050 OVC100 12 3 54% 74.57 0.0
04 08:50 W 20 G 33 16.09 Overcast OVC100 12 3 54% 74.55 0.0
04 08:35 W 20 G 30 16.09 Overcast OVC100 12 3 54% 74.55 0.0
04 08:15 W 20 G 26 16.09 Overcast SCT060 OVC100 12 3 54% 74.5 0.0
04 07:55 W 17 G 26 16.09 Overcast BKN065 OVC100 12 3 54% 74.5 0.0
04 07:35 W 11 16.09 Mostly Cloudy SCT065 BKN110 12 3 54% 74.47 0.0
04 07:10 W 17 G 33 16.09 Partly Cloudy SCT120 13 3 51% 74.47 0.0
04 06:55 W 22 G 35 16.09 Partly Cloudy SCT120 15 -1 34% 74.37 0.0
04 06:35 SW 22 G 31 16.09 Fair CLR 15 -1 34% 74.35 0.0
04 06:15 SW 22 G 41 16.09 Mostly Cloudy BKN110 16 -1 31% 74.35 0.0
04 05:55 SW 22 G 39 16.09 Overcast OVC110 16 -2 29% 74.35 0.0
04 05:35 SW 20 G 28 16.09 Overcast BKN100 OVC120 16 -2 29% 74.37 0.0
04 05:15 S 15 16.09 Overcast OVC100 15 -1 34% 74.35 0.0
04 04:55 S 13 16.09 Overcast OVC100 15 0 36% 74.4 0.0
04 04:35 S 13 16.09 Mostly Cloudy SCT065 SCT080 BKN110 14 0 39% 74.45 0.0
04 04:15 SW 17 16.09 Partly Cloudy SCT110 14 0 39% 74.47 0.0
04 03:55 S 19 G 30 0.00 Fair CLR 14 0 39% 74.5 0.0
04 03:35 S 17 G 26 0.00 Fair CLR 14 0 39% 74.55 0.0
04 03:15 SW 15 G 26 0.00 Fair CLR 14 0 39% 74.57 0.0
04 02:55 S 15 0.00 Fair CLR 14 0 39% 74.6 0.0
04 02:35 SW 15 0.00 Fair CLR 14 0 39% 74.63 0.0
04 02:15 SW 15 0.00 Fair CLR 14 0 39% 74.68 0.0
04 01:55 SW 13 0.00 Fair CLR 13 0 41% 74.7 0.0
04 01:35 SW 13 0.00 Fair CLR 13 -1 38% 74.75 0.0
04 01:15 SW 11 0.00 Fair CLR 13 -1 38% 74.8 0.0
04 00:55 S 11 16.09 Fair CLR 13 -1 38% 74.8 0.0
04 00:35 S 11 16.09 Fair CLR 13 -1 38% 74.85 0.0
04 00:15 SW 9 16.09 Fair CLR 12 -1 41% 74.88 0.0
03 23:55 S 11 16.09 Fair CLR 12 -1 41% 74.9 0.0
03 23:35 S 9 16.09 Fair CLR 12 -1 41% 74.93 0.0
03 23:15 S 9 16.09 Fair CLR 12 -1 41% 74.98 0.0
03 22:55 S 9 16.09 Fair CLR 13 -2 36% 75.01 0.0
03 22:35 SW 7 16.09 Fair CLR 12 -2 38% 75.03 0.0
03 22:15 S 9 16.09 Fair CLR 12 -2 38% 75.08 0.0
03 21:55 S 7 16.09 Fair CLR 12 -2 38% 75.11 0.0
03 21:35 S 9 16.09 Fair CLR 12 -2 38% 75.11 0.0
03 21:15 S 6 16.09 Fair CLR 11 -3 38% 75.13 0.0
03 20:55 S 6 16.09 Fair CLR 12 -3 35% 75.13 0.0
03 20:35 SW 6 16.09 Fair CLR 15 -3 29% 75.13 0.0
03 20:15 SW 6 16.09 Fair CLR 16 -3 27% 75.18 0.0
03 19:55 W 7 16.09 Fair CLR 17 -4 24% 75.18 0.0
03 19:35 W 7 16.09 Fair CLR 18 -4 22% 75.18 0.0
03 19:15 W 15 16.09 Fair CLR 18 -4 22% 75.18 0.0
03 18:55 W 7 16.09 Fair CLR 18 -3 24% 75.18 0.0
03 18:35 NW 11 G 30 16.09 Fair CLR 19 -4 21% 75.21 0.0
03 18:15 W 13 G 33 16.09 Fair CLR 18 -5 21% 75.21 0.0
03 17:55 W 17 G 28 16.09 Fair CLR 20 -3 21% 75.21 0.0
03 17:35 W 13 16.09 Fair CLR 20 -3 21% 75.21 0.0
03 17:15 W 20 G 30 16.09 Fair CLR 20 -4 20% 75.23 0.0
03 16:55 NW 19 G 30 16.09 Fair CLR 20 -3 21% 75.23 0.0
03 16:35 W 9 G 33 16.09 Fair CLR 19 -4 21% 75.23 0.0
03 16:15 NW 13 G 28 16.09 Fair CLR 19 -4 21% 75.26 0.0
03 15:55 NW 24 G 35 16.09 Fair CLR 20 -5 18% 75.26 0.0
03 15:35 W 19 G 28 16.09 Fair CLR 19 -7 17% 75.26 0.0
03 15:15 W 22 G 31 16.09 Fair CLR 19 -7 17% 75.29 0.0
03 14:55 NW 20 G 35 16.09 Fair CLR 20 -7 16% 75.31 0.0
03 14:35 NW 24 G 35 16.09 Fair CLR 20 -7 16% 75.29 0.0
03 14:15 NW 19 G 30 16.09 Fair CLR 19 -7 17% 75.31 0.0
03 13:55 NW 20 G 39 16.09 Fair CLR 20 -6 17% 75.31 0.0
03 13:35 N 19 G 37 16.09 Fair CLR 19 -6 18% 75.34 0.0
03 13:15 NW 17 16.09 Fair CLR 19 -2 24% 75.34 0.0
03 12:55 NW 17 G 31 16.09 Fair CLR 18 -1 28% 75.34 0.0
Date Time (cdt) Wind (kph) Vis. (km) Weather Sky Cond. Air Dwpt Max. Min. Relative Humidity Wind Chill (°C) Heat Index (°C) altimeter (cm) sea level (mb) 1 hr 3 hr 6 hr
6 hour
Temperature (ºC) Pressure Precipitation (cm)